createdAt,value
2018-09-25T00:00:18.770Z,1.50
2018-09-25T00:01:18.756Z,1.50
2018-09-25T00:02:18.743Z,1.50
2018-09-25T00:03:18.762Z,1.50
2018-09-25T00:04:18.719Z,1.40
2018-09-25T00:05:18.710Z,1.50
2018-09-25T00:06:18.701Z,1.50
2018-09-25T00:07:18.687Z,1.20
2018-09-25T00:08:18.700Z,1.20
2018-09-25T00:09:18.678Z,1.50
2018-09-25T00:10:18.675Z,1.50
2018-09-25T00:11:18.668Z,1.80
2018-09-25T00:12:18.635Z,1.30
2018-09-25T00:13:18.642Z,1.40
2018-09-25T00:14:18.614Z,1.80
2018-09-25T00:15:18.595Z,1.70
2018-09-25T00:16:18.585Z,1.80
2018-09-25T00:17:18.578Z,1.80
2018-09-25T00:18:18.586Z,1.60
2018-09-25T00:19:18.567Z,1.60
2018-09-25T00:20:18.546Z,1.40
2018-09-25T00:21:18.529Z,1.50
2018-09-25T00:22:18.552Z,1.70
2018-09-25T00:23:18.511Z,1.90
2018-09-25T00:24:18.526Z,1.60
2018-09-25T00:25:18.491Z,1.50
2018-09-25T00:26:18.479Z,1.70
2018-09-25T00:27:18.464Z,1.60
2018-09-25T00:28:18.453Z,1.50
2018-09-25T00:29:18.471Z,1.60
2018-09-25T00:30:18.435Z,2.00
2018-09-25T00:31:18.432Z,1.90
2018-09-25T00:32:18.423Z,1.90
2018-09-25T00:33:18.439Z,1.90
2018-09-25T00:34:18.409Z,2.20
2018-09-25T00:35:18.405Z,2.30
2018-09-25T00:36:18.368Z,1.90
2018-09-25T00:37:18.357Z,1.90
2018-09-25T00:38:18.367Z,2.20
2018-09-25T00:39:18.336Z,1.70
2018-09-25T00:40:18.349Z,1.60
2018-09-25T00:41:18.309Z,1.70
2018-09-25T00:42:18.304Z,1.80
2018-09-25T00:43:18.305Z,1.60
2018-09-25T00:44:18.279Z,1.60
2018-09-25T00:45:18.305Z,1.70
2018-09-25T00:46:18.253Z,1.80
2018-09-25T00:47:18.267Z,1.60
2018-09-25T00:48:18.243Z,1.10
2018-09-25T00:49:18.238Z,1.30
2018-09-25T00:50:18.239Z,1.60
2018-09-25T00:51:18.198Z,1.20
2018-09-25T00:52:18.209Z,1.30
2018-09-25T00:53:18.177Z,1.90
2018-09-25T00:54:18.165Z,1.50
2018-09-25T00:55:18.168Z,1.80
2018-09-25T00:56:18.143Z,1.40
2018-09-25T00:57:18.151Z,1.70
2018-09-25T00:58:18.158Z,1.60
2018-09-25T00:59:18.110Z,1.00
2018-09-25T01:00:18.099Z,1.40
2018-09-25T01:01:18.097Z,1.50
2018-09-25T01:02:18.079Z,1.30
2018-09-25T01:03:18.115Z,1.50
2018-09-25T01:04:18.056Z,1.40
2018-09-25T01:05:18.043Z,1.60
2018-09-25T01:06:18.036Z,1.90
2018-09-25T01:07:18.035Z,1.20
2018-09-25T01:08:18.048Z,1.70
2018-09-25T01:09:17.999Z,1.50
2018-09-25T01:10:17.988Z,2.10
2018-09-25T01:11:17.983Z,1.20
2018-09-25T01:12:17.973Z,1.50
2018-09-25T01:13:17.978Z,1.40
2018-09-25T01:14:17.943Z,1.40
2018-09-25T01:15:17.936Z,1.40
2018-09-25T01:16:17.921Z,1.20
2018-09-25T01:17:17.916Z,1.40
2018-09-25T01:18:17.935Z,1.70
2018-09-25T01:19:17.950Z,1.10
2018-09-25T01:20:17.881Z,1.30
2018-09-25T01:21:25.701Z,1.50
2018-09-25T01:22:17.869Z,1.60
2018-09-25T01:23:17.841Z,1.60
2018-09-25T01:24:17.849Z,1.80
2018-09-25T01:25:17.818Z,1.70
2018-09-25T01:26:17.806Z,1.60
2018-09-25T01:27:17.800Z,1.50
2018-09-25T01:28:17.867Z,1.60
2018-09-25T01:29:17.802Z,1.50
2018-09-25T01:30:17.787Z,1.30
2018-09-25T01:31:17.758Z,1.50
2018-09-25T01:32:17.739Z,1.50
2018-09-25T01:33:17.727Z,1.30
2018-09-25T01:34:17.718Z,1.60
2018-09-25T01:35:17.737Z,1.40
2018-09-25T01:36:17.734Z,1.30
2018-09-25T01:37:17.681Z,1.50
2018-09-25T01:38:17.672Z,1.90
2018-09-25T01:39:17.688Z,1.50
2018-09-25T01:40:17.653Z,1.60
2018-09-25T01:41:17.641Z,1.60
2018-09-25T01:42:17.661Z,1.50
2018-09-25T01:43:17.616Z,1.70
2018-09-25T01:44:17.606Z,1.90
2018-09-25T01:45:17.595Z,1.70
2018-09-25T01:46:17.580Z,1.70
2018-09-25T01:47:17.595Z,1.50
2018-09-25T01:48:17.558Z,1.70
2018-09-25T01:49:17.550Z,2.00
2018-09-25T01:50:17.545Z,2.30
2018-09-25T01:51:25.231Z,1.90
2018-09-25T01:52:27.764Z,1.30
2018-09-25T01:53:25.335Z,1.90
2018-09-25T01:54:25.343Z,2.10
2018-09-25T01:55:17.481Z,1.60
2018-09-25T01:56:26.872Z,2.10
2018-09-25T01:57:17.464Z,1.90
2018-09-25T01:58:17.475Z,1.40
2018-09-25T01:59:17.435Z,1.30
2018-09-25T02:00:17.429Z,1.90
2018-09-25T02:01:17.413Z,2.00
2018-09-25T02:02:17.402Z,1.80
2018-09-25T02:03:17.417Z,1.80
2018-09-25T02:04:17.412Z,1.60
2018-09-25T02:05:17.371Z,1.40
2018-09-25T02:06:17.358Z,1.70
2018-09-25T02:07:17.347Z,1.70
2018-09-25T02:08:17.385Z,1.50
2018-09-25T02:09:17.343Z,1.60
2018-09-25T02:10:17.341Z,1.60
2018-09-25T02:11:17.302Z,1.50
2018-09-25T02:12:17.316Z,1.40
2018-09-25T02:13:17.297Z,1.80
2018-09-25T02:14:17.271Z,1.60
2018-09-25T02:15:17.279Z,2.60
2018-09-25T02:16:17.279Z,2.10
2018-09-25T02:17:17.235Z,1.80
2018-09-25T02:18:17.227Z,1.80
2018-09-25T02:19:17.215Z,2.00
2018-09-25T02:20:17.224Z,1.70
2018-09-25T02:21:17.192Z,2.20
2018-09-25T02:22:17.185Z,2.20
2018-09-25T02:23:17.177Z,2.80
2018-09-25T02:24:17.194Z,2.40
2018-09-25T02:25:17.148Z,2.30
2018-09-25T02:26:17.138Z,1.90
2018-09-25T02:27:17.133Z,2.80
2018-09-25T02:28:17.112Z,2.40
2018-09-25T02:29:17.122Z,2.50
2018-09-25T02:30:17.091Z,2.20
2018-09-25T02:31:17.111Z,2.20
2018-09-25T02:32:17.067Z,2.30
2018-09-25T02:33:17.071Z,2.00
2018-09-25T02:34:17.045Z,2.20
2018-09-25T02:35:17.035Z,2.20
2018-09-25T02:36:17.044Z,2.10
2018-09-25T02:37:17.010Z,1.90
2018-09-25T02:38:17.002Z,2.40
2018-09-25T02:39:17.016Z,2.40
2018-09-25T02:40:16.976Z,2.20
2018-09-25T02:41:16.963Z,2.80
2018-09-25T02:42:16.955Z,2.90
2018-09-25T02:43:16.947Z,2.90
2018-09-25T02:44:16.979Z,2.20
2018-09-25T02:45:16.918Z,2.20
2018-09-25T02:46:16.940Z,2.10
2018-09-25T02:47:16.899Z,2.70
2018-09-25T02:48:16.886Z,2.30
2018-09-25T02:49:16.877Z,2.80
2018-09-25T02:50:16.864Z,2.30
2018-09-25T02:51:16.886Z,3.20
2018-09-25T02:52:16.838Z,2.80
2018-09-25T02:53:16.828Z,3.00
2018-09-25T02:54:16.816Z,2.90
2018-09-25T02:55:16.807Z,2.70
2018-09-25T02:56:16.823Z,2.70
2018-09-25T02:57:16.784Z,2.50
2018-09-25T02:58:16.778Z,2.50
2018-09-25T02:59:16.763Z,2.80
2018-09-25T03:00:16.771Z,2.50
2018-09-25T03:01:16.745Z,2.70
2018-09-25T03:02:16.742Z,3.00
2018-09-25T03:03:16.718Z,2.70
2018-09-25T03:04:16.726Z,3.00
2018-09-25T03:05:16.696Z,3.10
2018-09-25T03:06:16.694Z,2.90
2018-09-25T03:07:16.675Z,3.00
2018-09-25T03:08:16.693Z,2.50
2018-09-25T03:09:16.652Z,3.30
2018-09-25T03:10:16.639Z,3.30
2018-09-25T03:11:16.628Z,3.60
2018-09-25T03:12:16.638Z,3.30
2018-09-25T03:13:16.614Z,3.80
2018-09-25T03:14:16.605Z,4.10
2018-09-25T03:15:16.583Z,4.40
2018-09-25T03:16:16.569Z,4.30
2018-09-25T03:17:16.599Z,3.50
2018-09-25T03:18:16.553Z,3.60
2018-09-25T03:19:16.590Z,4.20
2018-09-25T03:20:16.527Z,3.40
2018-09-25T03:21:16.517Z,3.50
2018-09-25T03:22:16.546Z,4.30
2018-09-25T03:23:16.494Z,3.90
2018-09-25T03:24:16.490Z,4.20
2018-09-25T03:25:16.493Z,4.20
2018-09-25T03:26:16.468Z,4.80
2018-09-25T03:27:16.474Z,4.90
2018-09-25T03:28:16.466Z,4.80
2018-09-25T03:29:16.433Z,4.70
2018-09-25T03:30:16.427Z,4.20
2018-09-25T03:31:16.446Z,4.70
2018-09-25T03:32:16.396Z,4.30
2018-09-25T03:33:16.386Z,4.90
2018-09-25T03:34:16.379Z,4.80
2018-09-25T03:35:16.372Z,5.40
2018-09-25T03:36:16.383Z,4.50
2018-09-25T03:37:16.398Z,5.10
2018-09-25T03:38:16.330Z,5.30
2018-09-25T03:39:16.326Z,4.70
2018-09-25T03:40:16.313Z,3.70
2018-09-25T03:41:16.297Z,3.70
2018-09-25T03:42:16.320Z,4.40
2018-09-25T03:43:16.279Z,5.50
2018-09-25T03:44:16.263Z,5.80
2018-09-25T03:45:16.253Z,5.50
2018-09-25T03:46:16.271Z,6.50
2018-09-25T03:47:16.233Z,6.10
2018-09-25T03:48:16.229Z,5.90
2018-09-25T03:49:16.241Z,5.60
2018-09-25T03:50:16.196Z,6.40
2018-09-25T03:51:16.188Z,5.20
2018-09-25T03:52:16.174Z,4.90
2018-09-25T03:53:16.167Z,4.90
2018-09-25T03:54:16.175Z,5.00
2018-09-25T03:55:16.140Z,4.80
2018-09-25T03:56:16.215Z,5.30
2018-09-25T03:57:16.118Z,4.80
2018-09-25T03:58:16.131Z,4.50
2018-09-25T03:59:16.105Z,4.20
2018-09-25T04:00:16.111Z,4.80
2018-09-25T04:01:16.110Z,5.30
2018-09-25T04:02:16.070Z,5.10
2018-09-25T04:03:16.078Z,4.90
2018-09-25T04:04:16.049Z,4.20
2018-09-25T04:05:16.047Z,4.10
2018-09-25T04:06:16.109Z,4.50
2018-09-25T04:07:16.041Z,4.70
2018-09-25T04:08:16.026Z,4.60
2018-09-25T04:09:15.986Z,4.70
2018-09-25T04:10:15.973Z,4.70
2018-09-25T04:11:15.988Z,4.70
2018-09-25T04:12:15.955Z,5.40
2018-09-25T04:13:15.943Z,4.50
2018-09-25T04:14:15.957Z,4.60
2018-09-25T04:15:15.924Z,5.90
2018-09-25T04:16:15.940Z,5.60
2018-09-25T04:17:15.909Z,5.90
2018-09-25T04:18:15.899Z,6.80
2018-09-25T04:19:15.877Z,7.00
2018-09-25T04:20:15.922Z,6.50
2018-09-25T04:21:15.856Z,6.20
2018-09-25T04:22:15.850Z,5.90
2018-09-25T04:23:15.855Z,5.40
2018-09-25T04:24:15.819Z,6.40
2018-09-25T04:25:15.813Z,6.60
2018-09-25T04:26:15.797Z,5.50
2018-09-25T04:27:15.793Z,7.00
2018-09-25T04:28:15.822Z,6.30
2018-09-25T04:29:15.764Z,5.90
2018-09-25T04:30:15.770Z,6.10
2018-09-25T04:31:15.748Z,6.70
2018-09-25T04:32:15.755Z,6.60
2018-09-25T04:33:15.737Z,6.10
2018-09-25T04:34:15.724Z,5.90
2018-09-25T04:35:15.728Z,7.30
2018-09-25T04:36:15.689Z,7.30
2018-09-25T04:37:15.732Z,5.30
2018-09-25T04:38:15.666Z,6.90
2018-09-25T04:39:15.654Z,7.50
2018-09-25T04:40:15.655Z,7.20
2018-09-25T04:41:15.666Z,6.60
2018-09-25T04:42:15.625Z,6.70
2018-09-25T04:43:24.390Z,8.30
2018-09-25T04:44:15.631Z,8.20
2018-09-25T04:45:15.614Z,7.60
2018-09-25T04:46:15.599Z,7.60
2018-09-25T04:47:23.429Z,6.80
2018-09-25T04:48:15.552Z,6.30
2018-09-25T04:49:15.543Z,7.00
2018-09-25T04:50:15.539Z,7.90
2018-09-25T04:51:24.950Z,9.40
2018-09-25T04:52:15.534Z,10.00
2018-09-25T04:53:15.502Z,10.40
2018-09-25T04:54:15.490Z,10.10
2018-09-25T04:55:23.987Z,10.40
2018-09-25T04:56:15.497Z,10.60
2018-09-25T04:57:15.465Z,10.70
2018-09-25T04:58:15.446Z,10.60
2018-09-25T04:59:15.623Z,11.20
2018-09-25T05:00:23.507Z,11.20
2018-09-25T05:01:15.454Z,11.40
2018-09-25T05:02:15.404Z,11.00
2018-09-25T05:03:15.395Z,11.60
2018-09-25T05:04:15.380Z,10.90
2018-09-25T05:05:15.369Z,11.20
2018-09-25T05:06:15.392Z,10.70
2018-09-25T05:07:15.346Z,11.40
2018-09-25T05:08:23.581Z,11.50
2018-09-25T05:09:15.325Z,12.20
2018-09-25T05:10:15.312Z,11.30
2018-09-25T05:11:15.322Z,11.50
2018-09-25T05:12:22.669Z,11.60
2018-09-25T05:13:23.121Z,12.00
2018-09-25T05:14:23.161Z,10.90
2018-09-25T05:15:23.709Z,11.10
2018-09-25T05:16:15.245Z,12.40
2018-09-25T05:17:15.249Z,11.00
2018-09-25T05:18:25.215Z,11.20
2018-09-25T05:19:23.246Z,12.60
2018-09-25T05:20:23.284Z,11.40
2018-09-25T05:21:15.197Z,12.80
2018-09-25T05:22:15.179Z,11.70
2018-09-25T05:23:15.196Z,11.20
2018-09-25T05:24:22.798Z,11.90
2018-09-25T05:25:15.150Z,12.00
2018-09-25T05:26:22.827Z,11.70
2018-09-25T05:27:15.129Z,12.40
2018-09-25T05:28:24.363Z,12.80
2018-09-25T05:29:15.102Z,13.10
2018-09-25T05:30:22.889Z,11.70
2018-09-25T05:31:15.082Z,12.60
2018-09-25T05:32:15.078Z,12.50
2018-09-25T05:33:15.080Z,11.30
2018-09-25T05:34:15.087Z,12.00
2018-09-25T05:35:15.043Z,11.40
2018-09-25T05:36:15.031Z,11.40
2018-09-25T05:37:15.014Z,12.50
2018-09-25T05:38:15.004Z,11.70
2018-09-25T05:39:15.053Z,12.90
2018-09-25T05:40:14.980Z,11.00
2018-09-25T05:41:14.969Z,12.20
2018-09-25T05:42:14.955Z,12.40
2018-09-25T05:43:14.945Z,12.40
2018-09-25T05:44:14.959Z,11.10
2018-09-25T05:45:14.959Z,11.30
2018-09-25T05:46:14.911Z,12.00
2018-09-25T05:47:14.898Z,10.90
2018-09-25T05:48:14.930Z,11.90
2018-09-25T05:49:14.884Z,11.70
2018-09-25T05:50:14.894Z,12.30
2018-09-25T05:51:14.857Z,11.30
2018-09-25T05:52:14.874Z,10.90
2018-09-25T05:53:14.834Z,11.20
2018-09-25T05:54:14.828Z,10.50
2018-09-25T05:55:14.811Z,11.40
2018-09-25T05:56:14.798Z,11.80
2018-09-25T05:57:14.834Z,11.00
2018-09-25T05:58:14.802Z,10.90
2018-09-25T05:59:14.766Z,10.70
2018-09-25T06:00:14.752Z,11.00
2018-09-25T06:01:14.767Z,11.80
2018-09-25T06:02:14.729Z,10.50
2018-09-25T06:03:14.717Z,11.90
2018-09-25T06:04:14.709Z,10.90
2018-09-25T06:05:14.700Z,10.40
2018-09-25T06:06:14.714Z,10.40
2018-09-25T06:07:14.689Z,10.40
2018-09-25T06:08:14.661Z,11.00
2018-09-25T06:09:14.666Z,11.20
2018-09-25T06:10:14.687Z,10.80
2018-09-25T06:11:14.651Z,10.10
2018-09-25T06:12:14.617Z,11.30
2018-09-25T06:13:14.604Z,10.00
2018-09-25T06:14:14.590Z,11.20
2018-09-25T06:15:14.584Z,11.00
2018-09-25T06:16:14.599Z,11.50
2018-09-25T06:17:14.561Z,10.50
2018-09-25T06:18:14.558Z,11.00
2018-09-25T06:19:14.534Z,10.70
2018-09-25T06:20:14.556Z,10.90
2018-09-25T06:21:14.516Z,10.90
2018-09-25T06:22:14.525Z,11.00
2018-09-25T06:23:14.497Z,10.80
2018-09-25T06:24:14.495Z,10.90
2018-09-25T06:25:14.493Z,10.70
2018-09-25T06:26:14.457Z,11.10
2018-09-25T06:27:14.448Z,11.40
2018-09-25T06:28:14.452Z,10.20
2018-09-25T06:29:14.450Z,10.40
2018-09-25T06:30:14.411Z,11.20
2018-09-25T06:31:14.406Z,10.50
2018-09-25T06:32:14.389Z,10.30
2018-09-25T06:33:14.380Z,10.10
2018-09-25T06:34:14.391Z,10.60
2018-09-25T06:35:14.373Z,10.80
2018-09-25T06:36:14.344Z,10.40
2018-09-25T06:37:14.428Z,10.70
2018-09-25T06:38:14.325Z,10.50
2018-09-25T06:39:14.345Z,10.60
2018-09-25T06:40:14.300Z,10.10
2018-09-25T06:41:14.297Z,10.30
2018-09-25T06:42:14.280Z,10.60
2018-09-25T06:43:14.294Z,9.70
2018-09-25T06:44:14.255Z,11.40
2018-09-25T06:45:14.271Z,10.60
2018-09-25T06:46:14.244Z,10.30
2018-09-25T06:47:14.293Z,10.20
2018-09-25T06:48:14.249Z,10.80
2018-09-25T06:49:14.202Z,10.90
2018-09-25T06:50:14.187Z,11.40
2018-09-25T06:51:14.182Z,10.70
2018-09-25T06:52:14.173Z,11.30
2018-09-25T06:53:14.178Z,9.90
2018-09-25T06:54:14.146Z,10.30
2018-09-25T06:55:14.223Z,10.90
2018-09-25T06:56:14.144Z,10.80
2018-09-25T06:57:14.117Z,10.60
2018-09-25T06:58:14.106Z,10.20
2018-09-25T06:59:14.125Z,10.90
2018-09-25T07:00:14.078Z,11.10
2018-09-25T07:01:14.072Z,9.80
2018-09-25T07:02:14.061Z,10.20
2018-09-25T07:03:14.050Z,9.60
2018-09-25T07:04:14.099Z,10.80
2018-09-25T07:05:14.020Z,9.70
2018-09-25T07:06:14.011Z,10.50
2018-09-25T07:07:13.999Z,10.40
2018-09-25T07:08:13.987Z,10.40
2018-09-25T07:09:14.005Z,10.20
2018-09-25T07:10:14.224Z,9.60
2018-09-25T07:11:13.960Z,10.80
2018-09-25T07:12:13.941Z,10.10
2018-09-25T07:13:13.944Z,9.80
2018-09-25T07:14:13.941Z,10.00
2018-09-25T07:15:13.913Z,10.30
2018-09-25T07:16:13.948Z,10.30
2018-09-25T07:17:13.887Z,10.20
2018-09-25T07:18:13.874Z,10.00
2018-09-25T07:19:13.865Z,10.40
2018-09-25T07:20:13.860Z,10.00
2018-09-25T07:21:13.864Z,10.40
2018-09-25T07:22:13.831Z,10.00
2018-09-25T07:23:13.819Z,9.90
2018-09-25T07:24:13.806Z,9.10
2018-09-25T07:25:13.796Z,10.10
2018-09-25T07:26:13.809Z,9.20
2018-09-25T07:27:13.807Z,9.40
2018-09-25T07:28:13.767Z,10.00
2018-09-25T07:29:13.749Z,10.00
2018-09-25T07:30:13.737Z,9.90
2018-09-25T07:31:13.760Z,10.30
2018-09-25T07:32:13.718Z,10.10
2018-09-25T07:33:13.716Z,9.80
2018-09-25T07:34:13.692Z,9.60
2018-09-25T07:35:13.681Z,9.40
2018-09-25T07:36:13.702Z,9.40
2018-09-25T07:37:13.666Z,10.30
2018-09-25T07:38:13.657Z,9.80
2018-09-25T07:39:13.636Z,9.70
2018-09-25T07:40:13.654Z,9.50
2018-09-25T07:41:13.613Z,9.40
2018-09-25T07:42:13.606Z,9.10
2018-09-25T07:43:13.592Z,9.10
2018-09-25T07:44:13.613Z,9.10
2018-09-25T07:45:13.599Z,8.90
2018-09-25T07:46:13.561Z,8.80
2018-09-25T07:47:13.549Z,9.60
2018-09-25T07:48:13.586Z,9.10
2018-09-25T07:49:13.524Z,9.50
2018-09-25T07:50:13.897Z,9.00
2018-09-25T07:51:13.501Z,9.50
2018-09-25T07:52:13.490Z,9.90
2018-09-25T07:53:13.480Z,9.20
2018-09-25T07:54:13.468Z,9.40
2018-09-25T07:55:13.485Z,8.40
2018-09-25T07:56:13.456Z,9.30
2018-09-25T07:57:13.433Z,9.10
2018-09-25T07:58:13.422Z,8.70
2018-09-25T07:59:13.409Z,8.80
2018-09-25T08:00:13.444Z,9.10
2018-09-25T08:01:13.387Z,8.70
2018-09-25T08:02:13.379Z,9.00
2018-09-25T08:03:13.459Z,8.70
2018-09-25T08:04:13.361Z,8.70
2018-09-25T08:05:13.385Z,8.40
2018-09-25T08:06:13.331Z,8.90
2018-09-25T08:07:13.327Z,9.10
2018-09-25T08:08:13.309Z,8.40
2018-09-25T08:09:13.298Z,8.30
2018-09-25T08:10:13.321Z,8.00
2018-09-25T08:11:13.277Z,7.90
2018-09-25T08:12:13.265Z,8.20
2018-09-25T08:13:13.262Z,8.00
2018-09-25T08:14:13.250Z,8.20
2018-09-25T08:15:13.283Z,8.20
2018-09-25T08:16:13.219Z,8.20
2018-09-25T08:17:13.210Z,8.00
2018-09-25T08:18:13.202Z,7.90
2018-09-25T08:19:13.201Z,8.40
2018-09-25T08:20:22.415Z,7.20
2018-09-25T08:21:13.163Z,8.40
2018-09-25T08:22:13.180Z,8.10
2018-09-25T08:23:13.145Z,7.90
2018-09-25T08:24:13.164Z,7.90
2018-09-25T08:25:13.137Z,8.30
2018-09-25T08:26:13.124Z,7.90
2018-09-25T08:27:13.111Z,7.50
2018-09-25T08:28:13.090Z,7.20
2018-09-25T08:29:13.100Z,7.40
2018-09-25T08:30:13.064Z,7.70
2018-09-25T08:31:13.050Z,7.50
2018-09-25T08:32:13.041Z,6.70
2018-09-25T08:33:13.065Z,7.00
2018-09-25T08:34:13.044Z,7.60
2018-09-25T08:35:13.006Z,7.30
2018-09-25T08:36:12.998Z,7.90
2018-09-25T08:37:12.986Z,7.60
2018-09-25T08:38:12.977Z,7.80
2018-09-25T08:39:13.095Z,7.40
2018-09-25T08:40:12.948Z,7.30
2018-09-25T08:41:12.959Z,7.70
2018-09-25T08:42:12.935Z,8.10
2018-09-25T08:43:12.914Z,7.20
2018-09-25T08:44:12.903Z,7.40
2018-09-25T08:45:12.897Z,8.10
2018-09-25T08:46:12.922Z,7.80
2018-09-25T08:47:12.868Z,8.20
2018-09-25T08:48:12.862Z,7.60
2018-09-25T08:49:12.845Z,7.90
2018-09-25T08:50:12.834Z,7.40
2018-09-25T08:51:12.847Z,7.60
2018-09-25T08:52:12.814Z,7.70
2018-09-25T08:53:12.804Z,7.60
2018-09-25T08:54:12.853Z,7.10
2018-09-25T08:55:12.778Z,7.40
2018-09-25T08:56:12.768Z,6.90
2018-09-25T08:57:12.778Z,7.70
2018-09-25T08:58:12.747Z,7.60
2018-09-25T08:59:12.778Z,8.00
2018-09-25T09:00:12.725Z,7.10
2018-09-25T09:01:12.717Z,8.10
2018-09-25T09:02:12.701Z,7.40
2018-09-25T09:03:12.686Z,8.00
2018-09-25T09:04:12.704Z,6.90
2018-09-25T09:05:12.668Z,6.70
2018-09-25T09:06:12.656Z,6.80
2018-09-25T09:07:12.664Z,6.90
2018-09-25T09:08:12.682Z,6.00
2018-09-25T09:09:12.621Z,6.50
2018-09-25T09:10:12.632Z,7.40
2018-09-25T09:11:12.598Z,6.60
2018-09-25T09:12:12.588Z,6.20
2018-09-25T09:13:12.576Z,6.30
2018-09-25T09:14:12.565Z,6.50
2018-09-25T09:15:12.576Z,6.60
2018-09-25T09:16:12.550Z,6.20
2018-09-25T09:17:12.528Z,6.20
2018-09-25T09:18:12.517Z,5.80
2018-09-25T09:19:12.507Z,6.40
2018-09-25T09:20:12.599Z,5.00
2018-09-25T09:21:12.499Z,5.00
2018-09-25T09:22:12.514Z,6.70
2018-09-25T09:23:12.464Z,6.10
2018-09-25T09:24:12.452Z,5.70
2018-09-25T09:25:12.527Z,5.50
2018-09-25T09:26:12.431Z,5.60
2018-09-25T09:27:12.442Z,5.30
2018-09-25T09:28:12.407Z,5.10
2018-09-25T09:29:12.395Z,4.90
2018-09-25T09:30:12.381Z,4.60
2018-09-25T09:31:12.370Z,4.80
2018-09-25T09:32:12.394Z,5.00
2018-09-25T09:33:12.360Z,4.40
2018-09-25T09:34:12.339Z,3.90
2018-09-25T09:35:12.331Z,4.40
2018-09-25T09:36:12.324Z,5.00
2018-09-25T09:37:12.331Z,5.10
2018-09-25T09:38:12.297Z,5.10
2018-09-25T09:39:12.288Z,4.60
2018-09-25T09:40:12.269Z,5.00
2018-09-25T09:41:12.429Z,4.80
2018-09-25T09:42:12.269Z,4.40
2018-09-25T09:43:12.244Z,5.00
2018-09-25T09:44:12.231Z,5.00
2018-09-25T09:45:12.213Z,4.60
2018-09-25T09:46:12.205Z,4.60
2018-09-25T09:47:12.217Z,4.60
2018-09-25T09:48:12.204Z,4.80
2018-09-25T09:49:12.168Z,4.30
2018-09-25T09:50:12.173Z,4.90
2018-09-25T09:51:12.147Z,4.70
2018-09-25T09:52:12.137Z,5.10
2018-09-25T09:53:12.146Z,4.60
2018-09-25T09:54:12.112Z,5.30
2018-09-25T09:55:12.100Z,4.90
2018-09-25T09:56:12.123Z,4.90
2018-09-25T09:57:12.077Z,4.20
2018-09-25T09:58:12.089Z,4.70
2018-09-25T09:59:12.056Z,4.40
2018-09-25T10:00:12.073Z,4.10
2018-09-25T10:01:12.039Z,4.20
2018-09-25T10:02:12.032Z,3.90
2018-09-25T10:03:12.011Z,4.10
2018-09-25T10:04:12.005Z,3.80
2018-09-25T10:05:12.021Z,4.00
2018-09-25T10:06:11.985Z,4.20
2018-09-25T10:07:12.055Z,4.40
2018-09-25T10:08:11.953Z,4.30
2018-09-25T10:09:11.944Z,4.10
2018-09-25T10:10:11.959Z,4.40
2018-09-25T10:11:11.923Z,4.40
2018-09-25T10:12:11.913Z,4.40
2018-09-25T10:13:11.912Z,4.30
2018-09-25T10:14:11.893Z,4.20
2018-09-25T10:15:11.918Z,4.00
2018-09-25T10:16:11.863Z,4.10
2018-09-25T10:17:11.855Z,3.80
2018-09-25T10:18:11.874Z,4.60
2018-09-25T10:19:11.849Z,4.00
2018-09-25T10:20:11.850Z,3.90
2018-09-25T10:21:11.810Z,4.10
2018-09-25T10:22:11.796Z,4.10
2018-09-25T10:23:11.789Z,3.50
2018-09-25T10:24:11.785Z,3.50
2018-09-25T10:25:11.787Z,3.50
2018-09-25T10:26:11.803Z,3.50
2018-09-25T10:27:11.749Z,3.80
2018-09-25T10:28:11.728Z,3.10
2018-09-25T10:29:11.724Z,3.40
2018-09-25T10:30:11.711Z,3.10
2018-09-25T10:31:11.722Z,3.90
2018-09-25T10:32:11.684Z,3.50
2018-09-25T10:33:11.699Z,3.80
2018-09-25T10:34:11.680Z,3.40
2018-09-25T10:35:11.650Z,3.50
2018-09-25T10:36:11.703Z,3.50
2018-09-25T10:37:11.631Z,3.60
2018-09-25T10:38:11.620Z,3.10
2018-09-25T10:39:11.606Z,3.50
2018-09-25T10:40:11.595Z,3.80
2018-09-25T10:41:11.618Z,2.70
2018-09-25T10:42:11.582Z,3.30
2018-09-25T10:43:11.560Z,3.40
2018-09-25T10:44:11.549Z,3.20
2018-09-25T10:45:11.538Z,3.00
2018-09-25T10:46:11.552Z,3.20
2018-09-25T10:47:11.519Z,3.40
2018-09-25T10:48:11.514Z,3.40
2018-09-25T10:49:11.494Z,3.30
2018-09-25T10:50:11.538Z,3.40
2018-09-25T10:51:11.508Z,3.30
2018-09-25T10:52:11.463Z,3.10
2018-09-25T10:53:11.448Z,3.20
2018-09-25T10:54:11.442Z,2.80
2018-09-25T10:55:11.428Z,3.40
2018-09-25T10:56:11.545Z,3.00
2018-09-25T10:57:11.441Z,2.50
2018-09-25T10:58:11.393Z,2.40
2018-09-25T10:59:11.393Z,2.50
2018-09-25T11:00:11.372Z,2.40
2018-09-25T11:01:11.361Z,2.10
2018-09-25T11:02:11.386Z,2.20
2018-09-25T11:03:11.496Z,2.20
2018-09-25T11:04:11.331Z,2.10
2018-09-25T11:05:11.324Z,3.00
2018-09-25T11:06:11.303Z,2.00
2018-09-25T11:07:11.340Z,2.10
2018-09-25T11:08:11.291Z,2.00
2018-09-25T11:09:11.274Z,1.90
2018-09-25T11:10:11.285Z,2.10
2018-09-25T11:11:11.250Z,2.40
2018-09-25T11:12:11.272Z,1.90
2018-09-25T11:13:11.295Z,2.30
2018-09-25T11:14:11.214Z,2.00
2018-09-25T11:15:11.210Z,2.20
2018-09-25T11:16:11.204Z,1.90
2018-09-25T11:17:11.181Z,2.30
2018-09-25T11:18:11.203Z,1.80
2018-09-25T11:19:11.157Z,2.00
2018-09-25T11:20:11.148Z,2.00
2018-09-25T11:21:11.136Z,1.60
2018-09-25T11:22:11.126Z,1.60
2018-09-25T11:23:11.140Z,1.20
2018-09-25T11:24:18.966Z,1.50
2018-09-25T11:25:11.091Z,1.80
2018-09-25T11:26:11.082Z,1.50
2018-09-25T11:27:11.070Z,1.40
2018-09-25T11:28:11.181Z,1.50
2018-09-25T11:29:11.044Z,1.40
2018-09-25T11:30:11.035Z,1.20
2018-09-25T11:31:11.022Z,1.40
2018-09-25T11:32:11.013Z,1.90
2018-09-25T11:33:11.021Z,1.30
2018-09-25T11:34:10.986Z,1.80
2018-09-25T11:35:10.985Z,1.30
2018-09-25T11:36:11.010Z,1.60
2018-09-25T11:37:10.955Z,1.70
2018-09-25T11:38:10.948Z,1.50
2018-09-25T11:39:10.941Z,1.40
2018-09-25T11:40:10.923Z,1.40
2018-09-25T11:41:20.053Z,2.10
2018-09-25T11:42:10.895Z,1.20
2018-09-25T11:43:10.885Z,1.20
2018-09-25T11:44:10.873Z,1.50
2018-09-25T11:45:18.536Z,1.50
2018-09-25T11:46:10.851Z,1.40
2018-09-25T11:47:10.965Z,1.40
2018-09-25T11:48:10.828Z,1.30
2018-09-25T11:49:10.819Z,1.90
2018-09-25T11:50:10.836Z,1.60
2018-09-25T11:51:10.820Z,1.40
2018-09-25T11:52:10.787Z,1.30
2018-09-25T11:53:18.574Z,1.30
2018-09-25T11:54:10.761Z,1.20
2018-09-25T11:55:10.754Z,1.10
2018-09-25T11:56:10.796Z,1.00
2018-09-25T11:57:10.732Z,1.30
2018-09-25T11:58:18.622Z,1.30
2018-09-25T11:59:10.707Z,1.30
2018-09-25T12:00:10.699Z,1.10
2018-09-25T12:01:10.707Z,1.00
2018-09-25T12:02:18.738Z,1.20
2018-09-25T12:03:10.658Z,1.30
2018-09-25T12:04:10.646Z,1.00
2018-09-25T12:05:10.639Z,1.00
2018-09-25T12:06:19.670Z,1.10
2018-09-25T12:07:10.617Z,1.50
2018-09-25T12:08:10.621Z,1.20
2018-09-25T12:09:10.592Z,1.00
2018-09-25T12:10:18.204Z,1.00
2018-09-25T12:11:10.568Z,1.30
2018-09-25T12:12:10.583Z,1.10
2018-09-25T12:13:10.550Z,0.90
2018-09-25T12:14:17.626Z,0.90
2018-09-25T12:15:10.523Z,1.00
2018-09-25T12:16:10.537Z,0.70
2018-09-25T12:17:10.503Z,1.10
2018-09-25T12:18:18.275Z,0.70
2018-09-25T12:19:10.477Z,0.80
2018-09-25T12:20:10.494Z,0.70
2018-09-25T12:21:10.456Z,0.90
2018-09-25T12:22:18.313Z,0.70
2018-09-25T12:23:18.361Z,1.00
2018-09-25T12:24:10.427Z,1.00
2018-09-25T12:25:10.450Z,0.70
2018-09-25T12:26:10.399Z,1.00
2018-09-25T12:27:18.381Z,0.90
2018-09-25T12:28:10.375Z,1.40
2018-09-25T12:29:10.365Z,1.10
2018-09-25T12:30:10.384Z,1.00
2018-09-25T12:31:17.888Z,1.20
2018-09-25T12:32:10.902Z,1.40
2018-09-25T12:33:10.321Z,1.10
2018-09-25T12:34:10.316Z,1.30
2018-09-25T12:35:10.297Z,1.10
2018-09-25T12:36:10.291Z,0.90
2018-09-25T12:37:10.301Z,1.00
2018-09-25T12:38:10.275Z,0.90
2018-09-25T12:39:10.251Z,0.70
2018-09-25T12:40:10.242Z,0.80
2018-09-25T12:41:10.273Z,1.20
2018-09-25T12:42:10.248Z,0.90
2018-09-25T12:43:10.272Z,0.90
2018-09-25T12:44:10.193Z,0.70
2018-09-25T12:45:10.182Z,0.70
2018-09-25T12:46:10.184Z,0.90
2018-09-25T12:47:10.163Z,0.80
2018-09-25T12:48:10.192Z,0.80
2018-09-25T12:49:10.148Z,1.00
2018-09-25T12:50:10.902Z,0.80
2018-09-25T12:51:10.116Z,0.80
2018-09-25T12:52:10.153Z,0.90
2018-09-25T12:53:10.124Z,0.80
2018-09-25T12:54:10.456Z,0.80
2018-09-25T12:55:10.099Z,1.00
2018-09-25T12:56:10.106Z,1.00
2018-09-25T12:57:10.091Z,0.50
2018-09-25T12:58:10.057Z,0.90
2018-09-25T12:59:10.037Z,1.00
2018-09-25T13:00:10.040Z,0.80
2018-09-25T13:01:10.006Z,0.90
2018-09-25T13:02:10.020Z,0.70
2018-09-25T13:03:09.989Z,0.60
2018-09-25T13:04:09.990Z,1.00
2018-09-25T13:05:10.006Z,0.80
2018-09-25T13:06:09.962Z,0.90
2018-09-25T13:07:09.941Z,0.80
2018-09-25T13:08:09.929Z,0.70
2018-09-25T13:09:09.916Z,0.90
2018-09-25T13:10:09.928Z,0.80
2018-09-25T13:11:09.913Z,0.70
2018-09-25T13:12:09.887Z,1.00
2018-09-25T13:13:09.872Z,0.70